Portada
METAR-TAF:

METAR-TAF

Aeropuertos :

Aeropuerto de Bethel

Bethel, Alaska, Estados Unidos

latitud: 60-46-47N, longitud: 161-50-16W, altitud: 38 m

Observación

El informe se hizo hace 14 minutos, a las 16:53 UTC
Viento 24 kt del norte-noreste
Temperatura -19°C
Humedad 77%
Presión 1004 hPa
Visibilidad: 12.9 km
Cielo despejado
poca nieve

METAR: PABE 261653Z 03024KT 8SM -SN CLR M19/M22 A2964 RMK AO2 PK WND 03033/1616 SLP040 P0000 T11941222

Hora: 08:07 (17:07 UTC)

Pronóstico

El informe se hizo hace 1 hora y 2 minutos, a las 16:05 UTC
Pronóstico válido del 26 a las 16 UTC al 27 a las 12 UTC
Viento 20 kt del norte-noreste con ráfagas de 35 kt
Visibilidad: 4.8 km
Cielo despejado
Ventisca alta de nieve
A partir de las 26 a las 2200 UTC
Viento 17 kt del norte-noreste
Visibilidad: 10 km
Cielo despejado

TAF: PABE 261605Z 2616/2712 03020G35KT 3SM BLSN SKC WS020/06050KT FM262200 03017KT P6SM SKC

Observaciones y pronósticos meteorológicos de más de 4000 aeropuertos (mensajes METAR y TAF).

Los puntos amarillos y rojos representan las estaciones disponibles.

Ponga el ratón en el punto deseado para ver el nombre de la estación.

Haga clic para ver las observaciones y los pronósticos meteorológicos.

Para cambiar el mapa : haga clic en los botones verdes con una cruz de color negro para hacer un zoom, en el botón verde con un guión para alejar o en las flechas verdes para mapas adyacentes.


METAR-TAF: